sensor_id;sensor_type;location;lat;lon;timestamp;P1;durP1;ratioP1;P2;durP2;ratioP2
14847;SDS011;7516;43.570;1.448;2023-04-12T00:00:18;5.17;;;2.40;;
14847;SDS011;7516;43.570;1.448;2023-04-12T00:02:45;5.23;;;2.40;;
14847;SDS011;7516;43.570;1.448;2023-04-12T00:05:19;5.77;;;2.60;;
14847;SDS011;7516;43.570;1.448;2023-04-12T00:07:47;4.10;;;2.50;;
14847;SDS011;7516;43.570;1.448;2023-04-12T00:10:17;5.27;;;2.50;;
14847;SDS011;7516;43.570;1.448;2023-04-12T00:12:45;4.47;;;2.30;;
14847;SDS011;7516;43.570;1.448;2023-04-12T00:15:13;3.83;;;2.30;;
14847;SDS011;7516;43.570;1.448;2023-04-12T00:17:41;4.10;;;2.13;;
14847;SDS011;7516;43.570;1.448;2023-04-12T00:20:09;4.33;;;2.53;;
14847;SDS011;7516;43.570;1.448;2023-04-12T00:22:39;4.20;;;2.37;;
14847;SDS011;7516;43.570;1.448;2023-04-12T00:25:06;4.63;;;2.60;;
14847;SDS011;7516;43.570;1.448;2023-04-12T00:27:34;3.20;;;2.13;;
14847;SDS011;7516;43.570;1.448;2023-04-12T00:30:02;4.33;;;2.47;;
14847;SDS011;7516;43.570;1.448;2023-04-12T00:32:31;3.40;;;2.10;;
14847;SDS011;7516;43.570;1.448;2023-04-12T00:34:58;4.40;;;2.40;;
14847;SDS011;7516;43.570;1.448;2023-04-12T00:37:26;4.83;;;2.30;;
14847;SDS011;7516;43.570;1.448;2023-04-12T00:39:55;3.03;;;2.20;;
14847;SDS011;7516;43.570;1.448;2023-04-12T00:42:22;3.07;;;2.00;;
14847;SDS011;7516;43.570;1.448;2023-04-12T00:44:50;5.43;;;2.70;;
14847;SDS011;7516;43.570;1.448;2023-04-12T00:47:17;3.20;;;2.10;;
14847;SDS011;7516;43.570;1.448;2023-04-12T00:49:45;3.97;;;2.27;;
14847;SDS011;7516;43.570;1.448;2023-04-12T00:52:12;5.40;;;2.43;;
14847;SDS011;7516;43.570;1.448;2023-04-12T00:54:42;4.13;;;2.17;;
14847;SDS011;7516;43.570;1.448;2023-04-12T00:57:11;4.27;;;2.63;;
14847;SDS011;7516;43.570;1.448;2023-04-12T00:59:39;5.07;;;2.43;;
14847;SDS011;7516;43.570;1.448;2023-04-12T01:02:06;4.47;;;2.43;;
14847;SDS011;7516;43.570;1.448;2023-04-12T01:04:34;6.70;;;2.73;;
14847;SDS011;7516;43.570;1.448;2023-04-12T01:07:08;2.73;;;2.33;;
14847;SDS011;7516;43.570;1.448;2023-04-12T01:09:48;4.83;;;2.33;;
14847;SDS011;7516;43.570;1.448;2023-04-12T01:12:27;3.67;;;2.60;;
14847;SDS011;7516;43.570;1.448;2023-04-12T01:15:03;4.83;;;2.33;;
14847;SDS011;7516;43.570;1.448;2023-04-12T01:17:34;3.20;;;2.10;;
14847;SDS011;7516;43.570;1.448;2023-04-12T01:20:05;4.27;;;2.17;;
14847;SDS011;7516;43.570;1.448;2023-04-12T01:22:53;4.17;;;2.30;;
14847;SDS011;7516;43.570;1.448;2023-04-12T01:25:44;3.30;;;2.10;;
14847;SDS011;7516;43.570;1.448;2023-04-12T01:28:31;3.37;;;2.20;;
14847;SDS011;7516;43.570;1.448;2023-04-12T01:31:00;3.23;;;2.20;;
14847;SDS011;7516;43.570;1.448;2023-04-12T01:33:29;3.87;;;2.00;;
14847;SDS011;7516;43.570;1.448;2023-04-12T01:35:59;4.10;;;2.20;;
14847;SDS011;7516;43.570;1.448;2023-04-12T01:38:28;4.40;;;2.20;;
14847;SDS011;7516;43.570;1.448;2023-04-12T01:40:56;3.00;;;2.03;;
14847;SDS011;7516;43.570;1.448;2023-04-12T01:43:24;2.37;;;1.97;;
14847;SDS011;7516;43.570;1.448;2023-04-12T01:45:53;3.67;;;2.17;;
14847;SDS011;7516;43.570;1.448;2023-04-12T01:48:20;4.23;;;2.37;;
14847;SDS011;7516;43.570;1.448;2023-04-12T01:50:50;3.53;;;2.50;;
14847;SDS011;7516;43.570;1.448;2023-04-12T01:53:26;3.43;;;2.27;;
14847;SDS011;7516;43.570;1.448;2023-04-12T01:55:58;3.77;;;2.40;;
14847;SDS011;7516;43.570;1.448;2023-04-12T01:58:32;2.60;;;2.20;;
14847;SDS011;7516;43.570;1.448;2023-04-12T02:01:02;3.40;;;2.30;;
14847;SDS011;7516;43.570;1.448;2023-04-12T02:03:31;3.03;;;2.20;;
14847;SDS011;7516;43.570;1.448;2023-04-12T02:05:59;3.53;;;2.20;;
14847;SDS011;7516;43.570;1.448;2023-04-12T02:08:28;3.37;;;2.43;;
14847;SDS011;7516;43.570;1.448;2023-04-12T02:10:56;4.03;;;2.40;;
14847;SDS011;7516;43.570;1.448;2023-04-12T02:13:24;3.50;;;2.23;;
14847;SDS011;7516;43.570;1.448;2023-04-12T02:15:52;4.17;;;2.40;;
14847;SDS011;7516;43.570;1.448;2023-04-12T02:18:22;3.07;;;2.40;;
14847;SDS011;7516;43.570;1.448;2023-04-12T02:20:50;4.10;;;2.30;;
14847;SDS011;7516;43.570;1.448;2023-04-12T02:23:17;3.93;;;2.20;;
14847;SDS011;7516;43.570;1.448;2023-04-12T02:25:45;3.57;;;2.10;;
14847;SDS011;7516;43.570;1.448;2023-04-12T02:28:13;4.73;;;2.27;;
14847;SDS011;7516;43.570;1.448;2023-04-12T02:30:40;6.57;;;3.47;;
14847;SDS011;7516;43.570;1.448;2023-04-12T02:33:08;3.97;;;2.23;;
14847;SDS011;7516;43.570;1.448;2023-04-12T02:35:37;5.00;;;2.30;;
14847;SDS011;7516;43.570;1.448;2023-04-12T02:38:04;4.47;;;2.63;;
14847;SDS011;7516;43.570;1.448;2023-04-12T02:40:33;4.57;;;2.27;;
14847;SDS011;7516;43.570;1.448;2023-04-12T02:43:03;4.03;;;2.57;;
14847;SDS011;7516;43.570;1.448;2023-04-12T02:45:30;3.20;;;2.30;;
14847;SDS011;7516;43.570;1.448;2023-04-12T02:47:58;5.13;;;2.60;;
14847;SDS011;7516;43.570;1.448;2023-04-12T02:50:25;2.93;;;2.03;;
14847;SDS011;7516;43.570;1.448;2023-04-12T02:52:55;3.27;;;2.20;;
14847;SDS011;7516;43.570;1.448;2023-04-12T02:55:22;3.47;;;2.30;;
14847;SDS011;7516;43.570;1.448;2023-04-12T02:57:51;4.00;;;2.03;;
14847;SDS011;7516;43.570;1.448;2023-04-12T03:00:19;3.77;;;2.20;;
14847;SDS011;7516;43.570;1.448;2023-04-12T03:02:46;3.63;;;2.40;;
14847;SDS011;7516;43.570;1.448;2023-04-12T03:05:15;4.33;;;2.50;;
14847;SDS011;7516;43.570;1.448;2023-04-12T03:07:43;3.70;;;2.37;;
14847;SDS011;7516;43.570;1.448;2023-04-12T03:10:12;4.00;;;2.30;;
14847;SDS011;7516;43.570;1.448;2023-04-12T03:12:40;3.13;;;2.20;;
14847;SDS011;7516;43.570;1.448;2023-04-12T03:15:07;3.40;;;2.17;;
14847;SDS011;7516;43.570;1.448;2023-04-12T03:17:36;5.63;;;2.67;;
14847;SDS011;7516;43.570;1.448;2023-04-12T03:20:04;4.10;;;2.23;;
14847;SDS011;7516;43.570;1.448;2023-04-12T03:22:33;2.83;;;2.30;;
14847;SDS011;7516;43.570;1.448;2023-04-12T03:25:01;4.43;;;2.60;;
14847;SDS011;7516;43.570;1.448;2023-04-12T03:27:31;4.93;;;2.07;;
14847;SDS011;7516;43.570;1.448;2023-04-12T03:29:58;3.07;;;2.20;;
14847;SDS011;7516;43.570;1.448;2023-04-12T03:32:26;4.27;;;2.50;;
14847;SDS011;7516;43.570;1.448;2023-04-12T03:34:53;3.80;;;2.50;;
14847;SDS011;7516;43.570;1.448;2023-04-12T03:37:22;4.53;;;2.50;;
14847;SDS011;7516;43.570;1.448;2023-04-12T03:39:50;5.37;;;2.43;;
14847;SDS011;7516;43.570;1.448;2023-04-12T03:42:17;5.00;;;2.67;;
14847;SDS011;7516;43.570;1.448;2023-04-12T03:44:46;2.93;;;2.40;;
14847;SDS011;7516;43.570;1.448;2023-04-12T03:47:13;3.43;;;2.50;;
14847;SDS011;7516;43.570;1.448;2023-04-12T03:49:41;4.03;;;2.23;;
14847;SDS011;7516;43.570;1.448;2023-04-12T03:52:08;3.97;;;2.57;;
14847;SDS011;7516;43.570;1.448;2023-04-12T03:54:36;5.07;;;2.60;;
14847;SDS011;7516;43.570;1.448;2023-04-12T03:57:03;4.33;;;2.60;;
14847;SDS011;7516;43.570;1.448;2023-04-12T03:59:31;5.20;;;2.60;;
14847;SDS011;7516;43.570;1.448;2023-04-12T04:02:00;4.27;;;2.50;;
14847;SDS011;7516;43.570;1.448;2023-04-12T04:04:27;4.17;;;2.60;;
14847;SDS011;7516;43.570;1.448;2023-04-12T04:06:55;3.43;;;2.67;;
14847;SDS011;7516;43.570;1.448;2023-04-12T04:09:22;3.13;;;2.40;;
14847;SDS011;7516;43.570;1.448;2023-04-12T04:11:50;3.67;;;2.43;;
14847;SDS011;7516;43.570;1.448;2023-04-12T04:14:17;4.33;;;2.80;;
14847;SDS011;7516;43.570;1.448;2023-04-12T04:16:45;4.20;;;2.50;;
14847;SDS011;7516;43.570;1.448;2023-04-12T04:19:14;4.50;;;2.60;;
14847;SDS011;7516;43.570;1.448;2023-04-12T04:21:41;5.07;;;2.70;;
14847;SDS011;7516;43.570;1.448;2023-04-12T04:24:09;4.07;;;2.90;;
14847;SDS011;7516;43.570;1.448;2023-04-12T04:26:38;4.53;;;2.67;;
14847;SDS011;7516;43.570;1.448;2023-04-12T04:29:05;4.53;;;2.97;;
14847;SDS011;7516;43.570;1.448;2023-04-12T04:31:32;4.47;;;3.07;;
14847;SDS011;7516;43.570;1.448;2023-04-12T04:34:00;5.97;;;2.70;;
14847;SDS011;7516;43.570;1.448;2023-04-12T04:36:31;5.03;;;3.40;;
14847;SDS011;7516;43.570;1.448;2023-04-12T04:39:00;3.30;;;2.80;;
14847;SDS011;7516;43.570;1.448;2023-04-12T04:41:29;5.03;;;2.83;;
14847;SDS011;7516;43.570;1.448;2023-04-12T04:44:03;3.77;;;2.50;;
14847;SDS011;7516;43.570;1.448;2023-04-12T04:46:33;4.60;;;2.50;;
14847;SDS011;7516;43.570;1.448;2023-04-12T04:49:02;5.67;;;2.87;;
14847;SDS011;7516;43.570;1.448;2023-04-12T04:51:31;4.67;;;2.47;;
14847;SDS011;7516;43.570;1.448;2023-04-12T04:53:58;4.10;;;3.00;;
14847;SDS011;7516;43.570;1.448;2023-04-12T04:56:27;5.20;;;3.10;;
14847;SDS011;7516;43.570;1.448;2023-04-12T04:58:55;3.50;;;2.70;;
14847;SDS011;7516;43.570;1.448;2023-04-12T05:01:22;3.77;;;2.53;;
14847;SDS011;7516;43.570;1.448;2023-04-12T05:03:52;4.57;;;3.07;;
14847;SDS011;7516;43.570;1.448;2023-04-12T05:06:19;4.50;;;2.57;;
14847;SDS011;7516;43.570;1.448;2023-04-12T05:08:48;3.67;;;2.77;;
14847;SDS011;7516;43.570;1.448;2023-04-12T05:11:17;4.60;;;2.70;;
14847;SDS011;7516;43.570;1.448;2023-04-12T05:13:45;2.83;;;2.30;;
14847;SDS011;7516;43.570;1.448;2023-04-12T05:16:12;4.33;;;3.00;;
14847;SDS011;7516;43.570;1.448;2023-04-12T05:18:40;4.83;;;2.70;;
14847;SDS011;7516;43.570;1.448;2023-04-12T05:21:07;3.23;;;2.63;;
14847;SDS011;7516;43.570;1.448;2023-04-12T05:23:35;4.53;;;2.87;;
14847;SDS011;7516;43.570;1.448;2023-04-12T05:26:08;3.70;;;2.67;;
14847;SDS011;7516;43.570;1.448;2023-04-12T05:28:35;4.73;;;3.87;;
14847;SDS011;7516;43.570;1.448;2023-04-12T05:31:03;3.23;;;2.70;;
14847;SDS011;7516;43.570;1.448;2023-04-12T05:33:31;3.70;;;2.80;;
14847;SDS011;7516;43.570;1.448;2023-04-12T05:36:00;4.27;;;2.60;;
14847;SDS011;7516;43.570;1.448;2023-04-12T05:38:28;4.33;;;2.63;;
14847;SDS011;7516;43.570;1.448;2023-04-12T05:40:56;4.13;;;2.80;;
14847;SDS011;7516;43.570;1.448;2023-04-12T05:43:25;3.57;;;2.60;;
14847;SDS011;7516;43.570;1.448;2023-04-12T05:45:52;4.07;;;2.73;;
14847;SDS011;7516;43.570;1.448;2023-04-12T05:48:20;5.43;;;2.67;;
14847;SDS011;7516;43.570;1.448;2023-04-12T05:50:49;5.90;;;2.83;;
14847;SDS011;7516;43.570;1.448;2023-04-12T05:53:17;4.80;;;3.17;;
14847;SDS011;7516;43.570;1.448;2023-04-12T05:55:45;5.37;;;2.93;;
14847;SDS011;7516;43.570;1.448;2023-04-12T05:58:12;5.80;;;3.10;;
14847;SDS011;7516;43.570;1.448;2023-04-12T06:00:41;3.50;;;2.80;;
14847;SDS011;7516;43.570;1.448;2023-04-12T06:03:09;8.53;;;3.10;;
14847;SDS011;7516;43.570;1.448;2023-04-12T06:05:37;4.87;;;3.20;;
14847;SDS011;7516;43.570;1.448;2023-04-12T06:08:04;7.20;;;3.30;;
14847;SDS011;7516;43.570;1.448;2023-04-12T06:10:32;10.10;;;3.83;;
14847;SDS011;7516;43.570;1.448;2023-04-12T06:13:00;6.07;;;3.17;;
14847;SDS011;7516;43.570;1.448;2023-04-12T06:15:27;10.07;;;4.20;;
14847;SDS011;7516;43.570;1.448;2023-04-12T06:17:57;5.90;;;4.03;;
14847;SDS011;7516;43.570;1.448;2023-04-12T06:20:24;8.27;;;3.70;;
14847;SDS011;7516;43.570;1.448;2023-04-12T06:22:52;5.77;;;3.47;;
14847;SDS011;7516;43.570;1.448;2023-04-12T06:25:19;6.03;;;3.80;;
14847;SDS011;7516;43.570;1.448;2023-04-12T06:27:48;4.80;;;3.30;;
14847;SDS011;7516;43.570;1.448;2023-04-12T06:30:15;5.43;;;3.30;;
14847;SDS011;7516;43.570;1.448;2023-04-12T06:32:43;6.73;;;3.90;;
14847;SDS011;7516;43.570;1.448;2023-04-12T06:35:12;6.37;;;4.17;;
14847;SDS011;7516;43.570;1.448;2023-04-12T06:37:41;7.80;;;4.00;;
14847;SDS011;7516;43.570;1.448;2023-04-12T06:40:08;8.93;;;4.70;;
14847;SDS011;7516;43.570;1.448;2023-04-12T06:42:36;13.10;;;4.20;;
14847;SDS011;7516;43.570;1.448;2023-04-12T06:45:04;6.87;;;3.83;;
14847;SDS011;7516;43.570;1.448;2023-04-12T06:47:32;7.83;;;4.33;;
14847;SDS011;7516;43.570;1.448;2023-04-12T06:50:00;8.70;;;3.80;;
14847;SDS011;7516;43.570;1.448;2023-04-12T06:52:29;10.90;;;4.90;;
14847;SDS011;7516;43.570;1.448;2023-04-12T06:54:56;6.97;;;4.60;;
14847;SDS011;7516;43.570;1.448;2023-04-12T06:57:24;12.33;;;4.90;;
14847;SDS011;7516;43.570;1.448;2023-04-12T06:59:51;11.97;;;5.27;;
14847;SDS011;7516;43.570;1.448;2023-04-12T07:02:19;15.33;;;4.90;;
14847;SDS011;7516;43.570;1.448;2023-04-12T07:04:50;9.60;;;5.03;;
14847;SDS011;7516;43.570;1.448;2023-04-12T07:07:18;13.93;;;5.40;;
14847;SDS011;7516;43.570;1.448;2023-04-12T07:09:47;10.43;;;4.67;;
14847;SDS011;7516;43.570;1.448;2023-04-12T07:12:16;12.20;;;5.10;;
14847;SDS011;7516;43.570;1.448;2023-04-12T07:14:43;10.30;;;4.43;;
14847;SDS011;7516;43.570;1.448;2023-04-12T07:17:11;11.23;;;4.97;;
14847;SDS011;7516;43.570;1.448;2023-04-12T07:19:38;10.70;;;4.87;;
14847;SDS011;7516;43.570;1.448;2023-04-12T07:22:08;7.20;;;4.53;;
14847;SDS011;7516;43.570;1.448;2023-04-12T07:24:35;12.87;;;5.00;;
14847;SDS011;7516;43.570;1.448;2023-04-12T07:27:04;10.13;;;4.40;;
14847;SDS011;7516;43.570;1.448;2023-04-12T07:29:33;7.87;;;4.43;;
14847;SDS011;7516;43.570;1.448;2023-04-12T07:32:01;9.20;;;5.13;;
14847;SDS011;7516;43.570;1.448;2023-04-12T07:34:29;12.07;;;4.60;;
14847;SDS011;7516;43.570;1.448;2023-04-12T07:36:56;7.10;;;4.60;;
14847;SDS011;7516;43.570;1.448;2023-04-12T07:39:25;6.00;;;4.33;;
14847;SDS011;7516;43.570;1.448;2023-04-12T07:41:53;8.00;;;4.37;;
14847;SDS011;7516;43.570;1.448;2023-04-12T07:44:22;10.03;;;4.90;;
14847;SDS011;7516;43.570;1.448;2023-04-12T07:46:50;8.23;;;4.57;;
14847;SDS011;7516;43.570;1.448;2023-04-12T07:49:17;11.03;;;4.70;;
14847;SDS011;7516;43.570;1.448;2023-04-12T07:51:45;7.83;;;4.00;;
14847;SDS011;7516;43.570;1.448;2023-04-12T07:54:12;5.63;;;4.50;;
14847;SDS011;7516;43.570;1.448;2023-04-12T07:56:39;8.00;;;4.30;;
14847;SDS011;7516;43.570;1.448;2023-04-12T07:59:23;5.47;;;4.00;;
14847;SDS011;7516;43.570;1.448;2023-04-12T08:01:51;7.87;;;4.07;;
14847;SDS011;7516;43.570;1.448;2023-04-12T08:04:18;8.00;;;4.20;;
14847;SDS011;7516;43.570;1.448;2023-04-12T08:06:46;8.50;;;4.07;;
14847;SDS011;7516;43.570;1.448;2023-04-12T08:09:14;6.83;;;4.30;;
14847;SDS011;7516;43.570;1.448;2023-04-12T08:11:41;11.20;;;4.60;;
14847;SDS011;7516;43.570;1.448;2023-04-12T08:14:09;8.90;;;4.40;;
14847;SDS011;7516;43.570;1.448;2023-04-12T08:16:37;6.20;;;4.10;;
14847;SDS011;7516;43.570;1.448;2023-04-12T08:19:05;6.93;;;3.90;;
14847;SDS011;7516;43.570;1.448;2023-04-12T08:21:33;6.17;;;3.90;;
14847;SDS011;7516;43.570;1.448;2023-04-12T08:24:01;7.67;;;4.70;;
14847;SDS011;7516;43.570;1.448;2023-04-12T08:26:28;7.10;;;3.97;;
14847;SDS011;7516;43.570;1.448;2023-04-12T08:28:55;8.40;;;4.00;;
14847;SDS011;7516;43.570;1.448;2023-04-12T08:31:23;6.57;;;4.00;;
14847;SDS011;7516;43.570;1.448;2023-04-12T08:33:52;9.03;;;4.50;;
14847;SDS011;7516;43.570;1.448;2023-04-12T08:36:20;10.43;;;4.17;;
14847;SDS011;7516;43.570;1.448;2023-04-12T08:38:47;8.70;;;4.70;;
14847;SDS011;7516;43.570;1.448;2023-04-12T08:41:17;8.47;;;4.27;;
14847;SDS011;7516;43.570;1.448;2023-04-12T08:43:45;9.73;;;3.90;;
14847;SDS011;7516;43.570;1.448;2023-04-12T08:46:13;8.33;;;4.13;;
14847;SDS011;7516;43.570;1.448;2023-04-12T08:48:41;7.13;;;3.93;;
14847;SDS011;7516;43.570;1.448;2023-04-12T08:51:12;5.03;;;3.77;;
14847;SDS011;7516;43.570;1.448;2023-04-12T08:53:40;9.13;;;3.90;;
14847;SDS011;7516;43.570;1.448;2023-04-12T08:56:09;6.50;;;3.40;;
14847;SDS011;7516;43.570;1.448;2023-04-12T08:58:37;6.40;;;3.73;;
14847;SDS011;7516;43.570;1.448;2023-04-12T09:01:09;8.43;;;3.60;;
14847;SDS011;7516;43.570;1.448;2023-04-12T09:03:38;7.27;;;3.47;;
14847;SDS011;7516;43.570;1.448;2023-04-12T09:06:07;7.27;;;3.00;;
14847;SDS011;7516;43.570;1.448;2023-04-12T09:08:36;6.47;;;2.90;;
14847;SDS011;7516;43.570;1.448;2023-04-12T09:11:22;4.50;;;2.90;;
14847;SDS011;7516;43.570;1.448;2023-04-12T09:13:51;6.80;;;3.20;;
14847;SDS011;7516;43.570;1.448;2023-04-12T09:16:35;5.57;;;3.03;;
14847;SDS011;7516;43.570;1.448;2023-04-12T09:19:05;6.67;;;2.83;;
14847;SDS011;7516;43.570;1.448;2023-04-12T09:21:33;4.17;;;2.53;;
14847;SDS011;7516;43.570;1.448;2023-04-12T09:24:04;4.60;;;2.70;;
14847;SDS011;7516;43.570;1.448;2023-04-12T09:26:35;9.17;;;2.23;;
14847;SDS011;7516;43.570;1.448;2023-04-12T09:29:02;8.90;;;2.70;;
14847;SDS011;7516;43.570;1.448;2023-04-12T09:31:30;7.27;;;2.20;;
14847;SDS011;7516;43.570;1.448;2023-04-12T09:34:05;6.87;;;2.40;;
14847;SDS011;7516;43.570;1.448;2023-04-12T09:36:36;6.03;;;2.50;;
14847;SDS011;7516;43.570;1.448;2023-04-12T09:39:06;5.57;;;2.30;;
14847;SDS011;7516;43.570;1.448;2023-04-12T09:41:34;4.87;;;2.30;;
14847;SDS011;7516;43.570;1.448;2023-04-12T09:44:01;6.00;;;2.30;;
14847;SDS011;7516;43.570;1.448;2023-04-12T09:46:29;4.73;;;2.10;;
14847;SDS011;7516;43.570;1.448;2023-04-12T09:48:57;5.73;;;2.40;;
14847;SDS011;7516;43.570;1.448;2023-04-12T09:51:25;5.03;;;2.83;;
14847;SDS011;7516;43.570;1.448;2023-04-12T09:53:55;6.60;;;2.50;;
14847;SDS011;7516;43.570;1.448;2023-04-12T09:56:26;6.70;;;2.47;;
14847;SDS011;7516;43.570;1.448;2023-04-12T09:58:56;4.20;;;2.20;;
14847;SDS011;7516;43.570;1.448;2023-04-12T10:01:28;4.03;;;2.10;;
14847;SDS011;7516;43.570;1.448;2023-04-12T10:03:59;5.07;;;2.70;;
14847;SDS011;7516;43.570;1.448;2023-04-12T10:06:28;5.10;;;2.40;;
14847;SDS011;7516;43.570;1.448;2023-04-12T10:08:56;6.23;;;2.60;;
14847;SDS011;7516;43.570;1.448;2023-04-12T10:11:28;9.43;;;2.57;;
14847;SDS011;7516;43.570;1.448;2023-04-12T10:13:56;4.27;;;2.30;;
14847;SDS011;7516;43.570;1.448;2023-04-12T10:16:25;4.20;;;2.30;;
14847;SDS011;7516;43.570;1.448;2023-04-12T10:18:53;6.20;;;2.40;;
14847;SDS011;7516;43.570;1.448;2023-04-12T10:21:21;9.57;;;2.50;;
14847;SDS011;7516;43.570;1.448;2023-04-12T10:23:49;6.90;;;2.40;;
14847;SDS011;7516;43.570;1.448;2023-04-12T10:26:16;8.07;;;2.50;;
14847;SDS011;7516;43.570;1.448;2023-04-12T10:28:45;4.50;;;2.30;;
14847;SDS011;7516;43.570;1.448;2023-04-12T10:31:52;9.53;;;2.17;;
14847;SDS011;7516;43.570;1.448;2023-04-12T10:34:25;4.17;;;2.10;;
14847;SDS011;7516;43.570;1.448;2023-04-12T10:36:54;5.37;;;2.37;;
14847;SDS011;7516;43.570;1.448;2023-04-12T10:39:36;6.27;;;2.00;;
14847;SDS011;7516;43.570;1.448;2023-04-12T10:44:53;4.47;;;1.90;;
14847;SDS011;7516;43.570;1.448;2023-04-12T10:50:26;4.73;;;2.20;;
14847;SDS011;7516;43.570;1.448;2023-04-12T10:55:49;5.10;;;2.17;;
14847;SDS011;7516;43.570;1.448;2023-04-12T11:01:23;3.63;;;1.70;;
14847;SDS011;7516;43.570;1.448;2023-04-12T11:04:04;4.90;;;2.10;;
14847;SDS011;7516;43.570;1.448;2023-04-12T11:06:39;6.63;;;2.10;;
14847;SDS011;7516;43.570;1.448;2023-04-12T11:09:15;5.60;;;2.23;;
14847;SDS011;7516;43.570;1.448;2023-04-12T11:11:43;7.73;;;2.53;;
14847;SDS011;7516;43.570;1.448;2023-04-12T11:14:11;4.43;;;2.10;;
14847;SDS011;7516;43.570;1.448;2023-04-12T11:19:51;2.53;;;1.73;;
14847;SDS011;7516;43.570;1.448;2023-04-12T11:22:20;4.90;;;2.03;;
14847;SDS011;7516;43.570;1.448;2023-04-12T11:24:49;3.50;;;1.80;;
14847;SDS011;7516;43.570;1.448;2023-04-12T11:27:18;3.30;;;1.70;;
14847;SDS011;7516;43.570;1.448;2023-04-12T11:29:47;3.80;;;1.80;;
14847;SDS011;7516;43.570;1.448;2023-04-12T11:32:16;3.73;;;1.97;;
14847;SDS011;7516;43.570;1.448;2023-04-12T11:34:47;5.07;;;2.07;;
14847;SDS011;7516;43.570;1.448;2023-04-12T11:37:16;6.30;;;2.20;;
14847;SDS011;7516;43.570;1.448;2023-04-12T11:39:46;3.93;;;1.63;;
14847;SDS011;7516;43.570;1.448;2023-04-12T11:42:17;4.53;;;2.10;;
14847;SDS011;7516;43.570;1.448;2023-04-12T11:44:46;5.17;;;2.30;;
14847;SDS011;7516;43.570;1.448;2023-04-12T11:47:14;4.70;;;2.10;;
14847;SDS011;7516;43.570;1.448;2023-04-12T11:49:43;3.80;;;2.30;;
14847;SDS011;7516;43.570;1.448;2023-04-12T11:52:14;5.47;;;2.30;;
14847;SDS011;7516;43.570;1.448;2023-04-12T11:54:43;5.18;;;2.13;;
14847;SDS011;7516;43.570;1.448;2023-04-12T11:57:11;5.57;;;2.30;;
14847;SDS011;7516;43.570;1.448;2023-04-12T11:59:41;3.60;;;2.00;;
14847;SDS011;7516;43.570;1.448;2023-04-12T12:02:10;5.60;;;2.00;;
14847;SDS011;7516;43.570;1.448;2023-04-12T12:04:38;6.17;;;2.30;;
14847;SDS011;7516;43.570;1.448;2023-04-12T12:07:08;3.93;;;2.03;;
14847;SDS011;7516;43.570;1.448;2023-04-12T12:09:39;5.47;;;2.27;;
14847;SDS011;7516;43.570;1.448;2023-04-12T12:12:08;5.67;;;2.53;;
14847;SDS011;7516;43.570;1.448;2023-04-12T12:14:37;5.30;;;2.30;;
14847;SDS011;7516;43.570;1.448;2023-04-12T12:17:08;7.90;;;2.93;;
14847;SDS011;7516;43.570;1.448;2023-04-12T12:19:37;5.50;;;2.43;;
14847;SDS011;7516;43.570;1.448;2023-04-12T12:22:06;6.73;;;2.50;;
14847;SDS011;7516;43.570;1.448;2023-04-12T12:24:36;5.40;;;2.47;;
14847;SDS011;7516;43.570;1.448;2023-04-12T12:27:10;4.60;;;2.40;;
14847;SDS011;7516;43.570;1.448;2023-04-12T12:29:37;5.60;;;2.67;;
14847;SDS011;7516;43.570;1.448;2023-04-12T12:32:09;6.53;;;2.17;;
14847;SDS011;7516;43.570;1.448;2023-04-12T12:34:38;6.10;;;2.53;;
14847;SDS011;7516;43.570;1.448;2023-04-12T12:37:07;6.47;;;2.80;;
14847;SDS011;7516;43.570;1.448;2023-04-12T12:39:58;6.80;;;2.90;;
14847;SDS011;7516;43.570;1.448;2023-04-12T12:42:44;5.13;;;2.73;;
14847;SDS011;7516;43.570;1.448;2023-04-12T12:45:14;5.77;;;2.97;;
14847;SDS011;7516;43.570;1.448;2023-04-12T12:47:46;5.83;;;2.80;;
14847;SDS011;7516;43.570;1.448;2023-04-12T12:50:16;5.23;;;2.77;;
14847;SDS011;7516;43.570;1.448;2023-04-12T12:52:44;5.40;;;3.30;;
14847;SDS011;7516;43.570;1.448;2023-04-12T12:55:13;5.77;;;3.17;;
14847;SDS011;7516;43.570;1.448;2023-04-12T12:57:42;5.90;;;2.80;;
14847;SDS011;7516;43.570;1.448;2023-04-12T13:00:11;8.03;;;3.10;;
14847;SDS011;7516;43.570;1.448;2023-04-12T13:02:39;5.93;;;3.03;;
14847;SDS011;7516;43.570;1.448;2023-04-12T13:05:07;5.40;;;2.80;;
14847;SDS011;7516;43.570;1.448;2023-04-12T13:07:36;2.13;;;1.23;;
14847;SDS011;7516;43.570;1.448;2023-04-12T13:10:04;2.20;;;0.67;;
14847;SDS011;7516;43.570;1.448;2023-04-12T13:12:34;1.53;;;0.50;;
14847;SDS011;7516;43.570;1.448;2023-04-12T13:15:03;1.77;;;0.70;;
14847;SDS011;7516;43.570;1.448;2023-04-12T13:17:32;1.47;;;0.50;;
14847;SDS011;7516;43.570;1.448;2023-04-12T13:19:59;1.70;;;0.70;;
14847;SDS011;7516;43.570;1.448;2023-04-12T13:22:28;1.20;;;0.60;;
14847;SDS011;7516;43.570;1.448;2023-04-12T13:24:55;2.43;;;0.77;;
14847;SDS011;7516;43.570;1.448;2023-04-12T13:27:23;2.67;;;0.70;;
14847;SDS011;7516;43.570;1.448;2023-04-12T13:29:52;1.53;;;0.50;;
14847;SDS011;7516;43.570;1.448;2023-04-12T13:32:19;1.33;;;0.60;;
14847;SDS011;7516;43.570;1.448;2023-04-12T13:34:47;2.43;;;0.67;;
14847;SDS011;7516;43.570;1.448;2023-04-12T13:37:14;1.13;;;0.50;;
14847;SDS011;7516;43.570;1.448;2023-04-12T13:39:42;2.00;;;0.50;;
14847;SDS011;7516;43.570;1.448;2023-04-12T13:42:09;2.53;;;0.70;;
14847;SDS011;7516;43.570;1.448;2023-04-12T13:44:37;2.10;;;0.60;;
14847;SDS011;7516;43.570;1.448;2023-04-12T13:47:06;1.53;;;0.40;;
14847;SDS011;7516;43.570;1.448;2023-04-12T13:49:33;1.03;;;0.60;;
14847;SDS011;7516;43.570;1.448;2023-04-12T13:52:01;1.57;;;0.53;;
14847;SDS011;7516;43.570;1.448;2023-04-12T13:54:28;1.20;;;0.47;;
14847;SDS011;7516;43.570;1.448;2023-04-12T13:56:56;3.60;;;0.70;;
14847;SDS011;7516;43.570;1.448;2023-04-12T13:59:23;1.47;;;0.50;;
14847;SDS011;7516;43.570;1.448;2023-04-12T14:01:51;2.15;;;0.70;;
14847;SDS011;7516;43.570;1.448;2023-04-12T14:04:20;2.57;;;0.60;;
14847;SDS011;7516;43.570;1.448;2023-04-12T14:06:47;2.57;;;0.80;;
14847;SDS011;7516;43.570;1.448;2023-04-12T14:09:21;3.33;;;0.70;;
14847;SDS011;7516;43.570;1.448;2023-04-12T14:11:49;1.43;;;0.60;;
14847;SDS011;7516;43.570;1.448;2023-04-12T14:14:19;1.33;;;0.60;;
14847;SDS011;7516;43.570;1.448;2023-04-12T14:16:47;1.40;;;0.60;;
14847;SDS011;7516;43.570;1.448;2023-04-12T14:19:17;2.13;;;0.70;;
14847;SDS011;7516;43.570;1.448;2023-04-12T14:21:46;3.80;;;0.80;;
14847;SDS011;7516;43.570;1.448;2023-04-12T14:24:14;2.78;;;1.00;;
14847;SDS011;7516;43.570;1.448;2023-04-12T14:26:42;1.43;;;0.70;;
14847;SDS011;7516;43.570;1.448;2023-04-12T14:29:09;2.77;;;0.70;;
14847;SDS011;7516;43.570;1.448;2023-04-12T14:31:37;1.43;;;0.63;;
14847;SDS011;7516;43.570;1.448;2023-04-12T14:34:05;2.20;;;0.93;;
14847;SDS011;7516;43.570;1.448;2023-04-12T14:36:34;1.57;;;0.87;;
14847;SDS011;7516;43.570;1.448;2023-04-12T14:39:02;2.67;;;0.83;;
14847;SDS011;7516;43.570;1.448;2023-04-12T14:41:30;1.57;;;0.70;;
14847;SDS011;7516;43.570;1.448;2023-04-12T14:43:57;3.53;;;0.90;;
14847;SDS011;7516;43.570;1.448;2023-04-12T14:46:25;1.87;;;0.80;;
14847;SDS011;7516;43.570;1.448;2023-04-12T14:48:53;3.37;;;0.80;;
14847;SDS011;7516;43.570;1.448;2023-04-12T14:51:20;1.90;;;0.70;;
14847;SDS011;7516;43.570;1.448;2023-04-12T14:53:49;2.50;;;0.80;;
14847;SDS011;7516;43.570;1.448;2023-04-12T14:56:20;2.70;;;0.70;;
14847;SDS011;7516;43.570;1.448;2023-04-12T14:58:50;2.03;;;0.80;;
14847;SDS011;7516;43.570;1.448;2023-04-12T15:01:19;4.10;;;1.00;;
14847;SDS011;7516;43.570;1.448;2023-04-12T15:03:50;5.80;;;1.10;;
14847;SDS011;7516;43.570;1.448;2023-04-12T15:06:18;1.80;;;0.80;;
14847;SDS011;7516;43.570;1.448;2023-04-12T15:08:50;2.97;;;0.70;;
14847;SDS011;7516;43.570;1.448;2023-04-12T15:11:18;2.30;;;0.70;;
14847;SDS011;7516;43.570;1.448;2023-04-12T15:13:46;2.60;;;0.80;;
14847;SDS011;7516;43.570;1.448;2023-04-12T15:16:13;3.30;;;0.90;;
14847;SDS011;7516;43.570;1.448;2023-04-12T15:18:41;3.63;;;0.80;;
14847;SDS011;7516;43.570;1.448;2023-04-12T15:21:09;3.37;;;0.90;;
14847;SDS011;7516;43.570;1.448;2023-04-12T15:23:38;3.63;;;1.10;;
14847;SDS011;7516;43.570;1.448;2023-04-12T15:26:07;2.87;;;0.80;;